createdAt,value
2018-06-16T00:00:37.793Z,8.73
2018-06-16T00:03:07.015Z,9.10
2018-06-16T00:05:36.125Z,9.67
2018-06-16T00:08:05.621Z,8.27
2018-06-16T00:10:34.774Z,8.57
2018-06-16T00:13:03.863Z,8.47
2018-06-16T00:15:33.109Z,8.27
2018-06-16T00:18:02.258Z,8.37
2018-06-16T00:20:31.464Z,8.43
2018-06-16T00:23:00.629Z,8.30
2018-06-16T00:25:29.746Z,8.50
2018-06-16T00:27:58.893Z,9.60
2018-06-16T00:30:28.039Z,8.43
2018-06-16T00:32:57.180Z,8.70
2018-06-16T00:35:26.318Z,9.23
2018-06-16T00:37:55.460Z,9.30
2018-06-16T00:40:24.600Z,9.83
2018-06-16T00:42:53.782Z,10.07
2018-06-16T00:45:22.961Z,10.00
2018-06-16T00:47:52.138Z,9.50
2018-06-16T00:50:21.373Z,9.97
2018-06-16T00:52:50.545Z,9.60
2018-06-16T00:55:19.649Z,10.10
2018-06-16T00:57:49.953Z,10.53
2018-06-16T01:00:20.063Z,10.13
2018-06-16T01:02:49.486Z,10.90
2018-06-16T01:05:18.633Z,11.00
2018-06-16T01:07:47.814Z,11.13
2018-06-16T01:10:17.003Z,11.00
2018-06-16T01:12:46.464Z,11.33
2018-06-16T01:15:15.630Z,11.57
2018-06-16T01:17:44.966Z,12.13
2018-06-16T01:20:14.444Z,12.03
2018-06-16T01:22:45.047Z,11.43
2018-06-16T01:25:13.928Z,11.27
2018-06-16T01:27:43.015Z,12.60
2018-06-16T01:30:12.117Z,11.83
2018-06-16T01:32:41.283Z,11.73
2018-06-16T01:35:10.508Z,11.33
2018-06-16T01:37:39.645Z,11.50
2018-06-16T01:40:08.824Z,12.20
2018-06-16T01:42:38.070Z,11.07
2018-06-16T01:45:07.294Z,11.50
2018-06-16T01:47:36.474Z,12.27
2018-06-16T01:50:05.638Z,11.57
2018-06-16T01:52:34.770Z,10.40
2018-06-16T01:55:03.934Z,11.07
2018-06-16T01:57:33.069Z,10.63
2018-06-16T02:00:02.294Z,10.60
2018-06-16T02:02:32.872Z,10.40
2018-06-16T02:05:02.065Z,9.70
2018-06-16T02:07:32.739Z,9.27
2018-06-16T02:10:01.839Z,8.43
2018-06-16T02:12:31.002Z,8.70
2018-06-16T02:15:00.132Z,8.80
2018-06-16T02:17:29.254Z,8.50
2018-06-16T02:19:58.418Z,8.70
2018-06-16T02:22:27.646Z,8.13
2018-06-16T02:24:56.833Z,8.77
2018-06-16T02:27:25.927Z,8.43
2018-06-16T02:29:55.162Z,8.27
2018-06-16T02:32:24.297Z,8.60
2018-06-16T02:34:53.452Z,8.00
2018-06-16T02:37:22.638Z,8.40
2018-06-16T02:39:51.764Z,7.63
2018-06-16T02:42:20.916Z,8.13
2018-06-16T02:44:50.090Z,8.33
2018-06-16T02:47:19.260Z,8.50
2018-06-16T02:49:48.412Z,8.60
2018-06-16T02:52:17.579Z,8.73
2018-06-16T02:54:46.700Z,8.43
2018-06-16T02:57:15.873Z,8.20
2018-06-16T02:59:45.026Z,9.13
2018-06-16T03:02:14.165Z,8.97
2018-06-16T03:04:43.533Z,9.17
2018-06-16T03:07:12.725Z,9.70
2018-06-16T03:09:41.856Z,10.30
2018-06-16T03:12:10.983Z,9.83
2018-06-16T03:14:40.082Z,9.97
2018-06-16T03:17:09.243Z,9.93
2018-06-16T03:19:38.385Z,9.50
2018-06-16T03:22:07.527Z,9.13
2018-06-16T03:24:36.646Z,9.40
2018-06-16T03:27:05.837Z,9.97
2018-06-16T03:29:34.951Z,9.47
2018-06-16T03:32:04.112Z,9.60
2018-06-16T03:34:33.284Z,10.10
2018-06-16T03:37:02.406Z,9.33
2018-06-16T03:39:31.247Z,9.37
2018-06-16T03:42:00.236Z,9.33
2018-06-16T03:44:29.360Z,9.50
2018-06-16T03:46:58.498Z,9.37
2018-06-16T03:49:27.650Z,8.83
2018-06-16T03:51:56.777Z,8.20
2018-06-16T03:54:25.908Z,8.00
2018-06-16T03:56:55.041Z,7.90
2018-06-16T03:59:24.248Z,7.30
2018-06-16T04:01:53.404Z,7.60
2018-06-16T04:04:22.561Z,6.67
2018-06-16T04:06:51.677Z,7.03
2018-06-16T04:09:20.794Z,6.53
2018-06-16T04:11:49.930Z,6.73
2018-06-16T04:14:19.108Z,6.87
2018-06-16T04:16:48.376Z,7.40
2018-06-16T04:19:17.532Z,6.63
2018-06-16T04:21:46.633Z,7.30
2018-06-16T04:24:15.766Z,7.07
2018-06-16T04:26:44.861Z,7.67
2018-06-16T04:29:14.013Z,7.63
2018-06-16T04:31:43.127Z,7.30
2018-06-16T04:34:12.248Z,7.53
2018-06-16T04:36:41.414Z,6.93
2018-06-16T04:39:10.802Z,7.17
2018-06-16T04:41:39.897Z,7.60
2018-06-16T04:44:09.094Z,7.43
2018-06-16T04:46:38.265Z,6.53
2018-06-16T04:49:07.408Z,7.00
2018-06-16T04:51:36.610Z,7.17
2018-06-16T04:54:05.804Z,6.83
2018-06-16T04:56:34.949Z,9.07
2018-06-16T04:59:04.089Z,7.93
2018-06-16T05:01:33.280Z,7.47
2018-06-16T05:04:02.443Z,7.80
2018-06-16T05:06:31.633Z,8.13
2018-06-16T05:09:00.951Z,8.10
2018-06-16T05:11:30.686Z,8.60
2018-06-16T05:13:59.797Z,9.10
2018-06-16T05:16:28.957Z,8.80
2018-06-16T05:18:58.021Z,8.87
2018-06-16T05:21:27.253Z,8.20
2018-06-16T05:23:56.404Z,8.23
2018-06-16T05:26:25.581Z,7.97
2018-06-16T05:28:54.773Z,8.30
2018-06-16T05:31:23.906Z,9.10
2018-06-16T05:33:53.050Z,9.27
2018-06-16T05:36:22.200Z,8.53
2018-06-16T05:38:51.321Z,9.03
2018-06-16T05:41:20.441Z,9.73
2018-06-16T05:43:49.685Z,9.77
2018-06-16T05:46:18.834Z,9.53
2018-06-16T05:48:47.989Z,9.53
2018-06-16T05:51:17.131Z,9.10
2018-06-16T05:53:46.310Z,9.70
2018-06-16T05:56:15.473Z,9.80
2018-06-16T05:58:44.625Z,8.60
2018-06-16T06:01:13.867Z,10.00
2018-06-16T06:03:43.029Z,9.37
2018-06-16T06:06:12.268Z,10.17
2018-06-16T06:08:41.469Z,9.10
2018-06-16T06:11:11.245Z,8.80
2018-06-16T06:13:40.476Z,9.27
2018-06-16T06:16:09.632Z,9.50
2018-06-16T06:18:38.746Z,9.43
2018-06-16T06:21:07.795Z,9.77
2018-06-16T06:23:36.939Z,9.90
2018-06-16T06:26:06.083Z,10.07
2018-06-16T06:28:35.249Z,9.20
2018-06-16T06:31:04.498Z,9.40
2018-06-16T06:33:33.640Z,8.10
2018-06-16T06:36:02.821Z,8.93
2018-06-16T06:38:32.987Z,8.00
2018-06-16T06:41:02.192Z,8.47
2018-06-16T06:43:31.480Z,7.70
2018-06-16T06:46:00.720Z,8.13
2018-06-16T06:48:30.052Z,7.03
2018-06-16T06:50:59.237Z,6.97
2018-06-16T06:53:28.408Z,6.90
2018-06-16T06:55:57.954Z,7.53
2018-06-16T06:58:27.082Z,7.50
2018-06-16T07:00:57.703Z,6.23
2018-06-16T07:03:26.946Z,7.17
2018-06-16T07:05:57.987Z,6.70
2018-06-16T07:08:27.170Z,7.23
2018-06-16T07:10:56.323Z,6.95
2018-06-16T07:13:26.080Z,6.12
2018-06-16T07:15:55.483Z,6.47
2018-06-16T07:18:24.794Z,6.67
2018-06-16T07:20:54.918Z,6.97
2018-06-16T07:23:24.052Z,8.50
2018-06-16T07:25:53.250Z,8.28
2018-06-16T07:28:22.395Z,6.87
2018-06-16T07:30:52.469Z,7.17
2018-06-16T07:33:22.323Z,7.10
2018-06-16T07:35:51.600Z,7.28
2018-06-16T07:38:20.818Z,5.87
2018-06-16T07:40:50.321Z,6.67
2018-06-16T07:43:19.487Z,6.00
2018-06-16T07:45:48.586Z,6.28
2018-06-16T07:48:17.815Z,6.22
2018-06-16T07:50:46.971Z,6.58
2018-06-16T07:53:16.091Z,5.80
2018-06-16T07:55:45.281Z,5.97
2018-06-16T07:58:14.461Z,6.22
2018-06-16T08:00:43.616Z,5.75
2018-06-16T08:03:12.893Z,6.10
2018-06-16T08:05:42.147Z,5.58
2018-06-16T08:08:11.286Z,5.50
2018-06-16T08:10:40.441Z,5.37
2018-06-16T08:13:09.606Z,5.28
2018-06-16T08:15:38.807Z,5.50
2018-06-16T08:18:08.050Z,5.10
2018-06-16T08:20:37.219Z,4.40
2018-06-16T08:23:06.088Z,4.83
2018-06-16T08:25:35.507Z,5.40
2018-06-16T08:28:04.709Z,3.80
2018-06-16T08:30:34.015Z,3.77
2018-06-16T08:33:03.205Z,4.12
2018-06-16T08:35:32.383Z,3.40
2018-06-16T08:38:01.618Z,4.00
2018-06-16T08:40:30.853Z,3.52
2018-06-16T08:42:59.995Z,3.47
2018-06-16T08:45:29.123Z,3.65
2018-06-16T08:47:58.317Z,3.12
2018-06-16T08:50:27.474Z,3.20
2018-06-16T08:52:56.665Z,3.30
2018-06-16T08:55:25.922Z,3.50
2018-06-16T08:57:55.113Z,3.00
2018-06-16T09:00:24.314Z,3.20
2018-06-16T09:02:53.474Z,3.00
2018-06-16T09:05:22.697Z,2.93
2018-06-16T09:07:51.925Z,2.50
2018-06-16T09:10:21.079Z,2.23
2018-06-16T09:12:50.177Z,2.27
2018-06-16T09:15:19.315Z,2.60
2018-06-16T09:17:48.456Z,2.77
2018-06-16T09:20:17.713Z,2.90
2018-06-16T09:22:46.966Z,2.47
2018-06-16T09:25:16.222Z,2.93
2018-06-16T09:27:45.397Z,2.83
2018-06-16T09:30:14.569Z,8.90
2018-06-16T09:32:43.810Z,2.97
2018-06-16T09:35:13.018Z,3.00
2018-06-16T09:37:42.156Z,2.77
2018-06-16T09:40:11.468Z,3.00
2018-06-16T09:42:40.840Z,2.77
2018-06-16T09:45:12.521Z,2.63
2018-06-16T09:47:42.018Z,2.77
2018-06-16T09:50:11.199Z,3.20
2018-06-16T09:52:40.397Z,3.20
2018-06-16T09:55:09.675Z,3.30
2018-06-16T09:57:38.822Z,2.80
2018-06-16T10:00:13.376Z,2.73
2018-06-16T10:02:42.569Z,2.67
2018-06-16T10:05:11.790Z,3.30
2018-06-16T10:07:41.278Z,3.13
2018-06-16T10:10:10.361Z,2.90
2018-06-16T10:12:39.696Z,2.77
2018-06-16T10:15:08.818Z,3.07
2018-06-16T10:17:38.109Z,2.60
2018-06-16T10:20:07.254Z,3.03
2018-06-16T10:22:36.413Z,3.10
2018-06-16T10:25:05.396Z,2.20
2018-06-16T10:27:34.609Z,3.07
2018-06-16T10:30:03.820Z,3.40
2018-06-16T10:32:32.935Z,2.37
2018-06-16T10:35:02.197Z,3.00
2018-06-16T10:37:31.542Z,2.43
2018-06-16T10:40:00.695Z,2.40
2018-06-16T10:42:29.857Z,2.17
2018-06-16T10:44:59.019Z,2.30
2018-06-16T10:47:28.157Z,2.30
2018-06-16T10:49:57.295Z,2.70
2018-06-16T10:52:26.469Z,2.53
2018-06-16T10:54:55.641Z,2.10
2018-06-16T10:57:24.782Z,2.17
2018-06-16T10:59:53.999Z,2.10
2018-06-16T11:02:23.197Z,2.85
2018-06-16T11:04:53.383Z,2.55
2018-06-16T11:07:22.947Z,2.60
2018-06-16T11:09:53.536Z,36.03
2018-06-16T11:12:22.588Z,3.67
2018-06-16T11:14:51.603Z,4.45
2018-06-16T11:17:20.794Z,3.47
2018-06-16T11:19:50.022Z,2.58
2018-06-16T11:22:19.221Z,2.50
2018-06-16T11:24:48.441Z,2.47
2018-06-16T11:27:17.827Z,2.50
2018-06-16T11:29:47.750Z,3.20
2018-06-16T11:32:16.945Z,3.10
2018-06-16T11:34:46.075Z,3.10
2018-06-16T11:37:15.207Z,2.60
2018-06-16T11:39:44.490Z,3.70
2018-06-16T11:42:13.659Z,2.70
2018-06-16T11:44:42.889Z,3.20
2018-06-16T11:47:12.057Z,2.90
2018-06-16T11:49:41.606Z,2.60
2018-06-16T11:52:10.742Z,2.70
2018-06-16T11:54:39.920Z,2.80
2018-06-16T11:57:09.800Z,2.70
2018-06-16T11:59:38.928Z,2.40
2018-06-16T12:02:08.145Z,3.47
2018-06-16T12:04:37.629Z,3.08
2018-06-16T12:07:06.799Z,2.98
2018-06-16T12:09:36.023Z,2.92
2018-06-16T12:12:05.261Z,3.43
2018-06-16T12:14:34.362Z,2.90
2018-06-16T12:17:03.574Z,3.37
2018-06-16T12:19:32.711Z,4.20
2018-06-16T12:22:01.933Z,4.47
2018-06-16T12:24:31.049Z,2.80
2018-06-16T12:27:00.199Z,3.08
2018-06-16T12:29:29.309Z,3.30
2018-06-16T12:31:58.477Z,3.10
2018-06-16T12:34:27.665Z,4.07
2018-06-16T12:36:56.825Z,3.47
2018-06-16T12:39:25.955Z,6.37
2018-06-16T12:41:55.090Z,5.70
2018-06-16T12:44:23.969Z,3.00
2018-06-16T12:46:53.241Z,4.70
2018-06-16T12:49:22.366Z,3.50
2018-06-16T12:51:51.953Z,3.50
2018-06-16T12:54:21.082Z,2.98
2018-06-16T12:56:50.388Z,2.60
2018-06-16T12:59:19.436Z,3.13
2018-06-16T13:01:48.574Z,3.10
2018-06-16T13:04:17.666Z,4.40
2018-06-16T13:06:46.848Z,3.03
2018-06-16T13:09:16.037Z,2.80
2018-06-16T13:11:45.820Z,2.65
2018-06-16T13:14:14.990Z,2.60
2018-06-16T13:16:44.174Z,3.25
2018-06-16T13:19:13.426Z,2.90
2018-06-16T13:21:43.175Z,3.12
2018-06-16T13:24:12.516Z,3.20
2018-06-16T13:26:41.804Z,2.83
2018-06-16T13:29:10.997Z,3.05
2018-06-16T13:31:40.158Z,2.92
2018-06-16T13:34:09.347Z,3.00
2018-06-16T13:36:38.577Z,3.15
2018-06-16T13:39:09.963Z,2.85
2018-06-16T13:41:39.397Z,3.22
2018-06-16T13:44:08.613Z,2.98
2018-06-16T13:46:37.797Z,2.70
2018-06-16T13:49:07.310Z,3.15
2018-06-16T13:51:36.454Z,3.72
2018-06-16T13:54:05.642Z,2.90
2018-06-16T13:56:35.042Z,3.30
2018-06-16T13:59:04.326Z,3.30
2018-06-16T14:01:33.749Z,3.30
2018-06-16T14:04:02.943Z,3.45
2018-06-16T14:06:32.079Z,3.17
2018-06-16T14:09:01.386Z,3.70
2018-06-16T14:11:30.606Z,2.83
2018-06-16T14:13:59.732Z,3.02
2018-06-16T14:16:28.918Z,2.83
2018-06-16T14:18:58.040Z,3.35
2018-06-16T14:21:27.220Z,3.12
2018-06-16T14:23:57.281Z,3.15
2018-06-16T14:26:26.689Z,3.10
2018-06-16T14:28:56.339Z,4.42
2018-06-16T14:31:25.698Z,3.37
2018-06-16T14:33:54.900Z,3.83
2018-06-16T14:36:24.159Z,3.40
2018-06-16T14:38:53.294Z,3.15
2018-06-16T14:41:22.706Z,3.42
2018-06-16T14:43:52.008Z,3.17
2018-06-16T14:46:21.182Z,3.50
2018-06-16T14:48:50.379Z,3.00
2018-06-16T14:51:19.568Z,3.33
2018-06-16T14:53:48.702Z,2.90
2018-06-16T14:56:17.848Z,3.10
2018-06-16T14:58:47.089Z,2.95
2018-06-16T15:01:16.200Z,3.45
2018-06-16T15:03:45.109Z,3.05
2018-06-16T15:06:14.233Z,3.33
2018-06-16T15:08:43.401Z,3.40
2018-06-16T15:11:12.657Z,2.87
2018-06-16T15:13:41.978Z,2.83
2018-06-16T15:16:11.568Z,3.25
2018-06-16T15:18:40.689Z,3.83
2018-06-16T15:21:09.821Z,3.60
2018-06-16T15:23:38.990Z,3.08
2018-06-16T15:26:08.117Z,3.77
2018-06-16T15:28:37.277Z,4.10
2018-06-16T15:31:06.392Z,3.65
2018-06-16T15:33:35.595Z,3.58
2018-06-16T15:36:04.840Z,3.10
2018-06-16T15:38:33.949Z,3.40
2018-06-16T15:41:03.046Z,3.25
2018-06-16T15:43:32.209Z,3.62
2018-06-16T15:46:01.335Z,2.95
2018-06-16T15:48:30.418Z,3.52
2018-06-16T15:50:59.621Z,3.60
2018-06-16T15:53:29.502Z,3.80
2018-06-16T15:55:58.716Z,3.80
2018-06-16T15:58:27.838Z,3.90
2018-06-16T16:00:57.010Z,3.22
2018-06-16T16:03:26.136Z,3.30
2018-06-16T16:05:55.357Z,3.20
2018-06-16T16:08:24.489Z,3.22
2018-06-16T16:10:53.662Z,3.40
2018-06-16T16:13:22.823Z,4.77
2018-06-16T16:15:51.974Z,3.50
2018-06-16T16:18:21.187Z,3.80
2018-06-16T16:20:50.494Z,3.90
2018-06-16T16:23:19.633Z,4.53
2018-06-16T16:25:48.474Z,3.30
2018-06-16T16:28:17.489Z,4.70
2018-06-16T16:30:46.638Z,4.07
2018-06-16T16:33:15.760Z,3.73
2018-06-16T16:35:44.987Z,4.80
2018-06-16T16:38:14.196Z,5.27
2018-06-16T16:40:43.510Z,5.17
2018-06-16T16:43:12.755Z,4.08
2018-06-16T16:45:42.072Z,4.30
2018-06-16T16:48:11.280Z,3.47
2018-06-16T16:50:40.602Z,3.33
2018-06-16T16:53:09.936Z,3.30
2018-06-16T16:55:39.261Z,3.40
2018-06-16T16:58:08.451Z,3.45
2018-06-16T17:00:37.574Z,3.50
2018-06-16T17:03:06.767Z,3.90
2018-06-16T17:05:36.016Z,4.87
2018-06-16T17:08:05.218Z,3.97
2018-06-16T17:10:34.443Z,4.03
2018-06-16T17:13:03.635Z,4.33
2018-06-16T17:16:35.905Z,4.30
2018-06-16T17:19:05.247Z,4.40
2018-06-16T17:21:34.400Z,4.00
2018-06-16T17:24:03.534Z,4.67
2018-06-16T17:26:32.675Z,3.70
2018-06-16T17:29:01.818Z,8.03
2018-06-16T17:31:30.962Z,3.67
2018-06-16T17:34:00.080Z,3.93
2018-06-16T17:36:29.235Z,14.00
2018-06-16T17:38:58.409Z,13.43
2018-06-16T17:41:27.550Z,14.77
2018-06-16T17:43:56.721Z,19.70
2018-06-16T17:46:25.890Z,5.03
2018-06-16T17:48:55.089Z,4.93
2018-06-16T17:51:24.251Z,5.10
2018-06-16T17:53:53.454Z,12.67
2018-06-16T17:56:22.632Z,4.20
2018-06-16T17:58:51.860Z,8.30
2018-06-16T18:01:24.816Z,4.43
2018-06-16T18:03:54.472Z,4.50
2018-06-16T18:06:23.668Z,4.93
2018-06-16T18:08:53.189Z,5.67
2018-06-16T18:11:22.415Z,6.03
2018-06-16T18:13:51.563Z,5.60
2018-06-16T18:16:21.021Z,5.37
2018-06-16T18:18:50.277Z,4.33
2018-06-16T18:21:19.405Z,3.53
2018-06-16T18:23:48.553Z,3.97
2018-06-16T18:26:17.810Z,3.93
2018-06-16T18:28:46.930Z,4.40
2018-06-16T18:31:16.207Z,4.40
2018-06-16T18:33:45.595Z,3.40
2018-06-16T18:36:14.731Z,5.33
2018-06-16T18:38:43.903Z,5.20
2018-06-16T18:41:13.050Z,6.23
2018-06-16T18:43:42.318Z,4.10
2018-06-16T18:46:11.190Z,4.80
2018-06-16T18:48:41.202Z,3.90
2018-06-16T18:51:10.495Z,4.00
2018-06-16T18:53:39.793Z,3.70
2018-06-16T18:56:09.007Z,3.50
2018-06-16T18:58:38.187Z,6.03
2018-06-16T19:01:07.465Z,5.27
2018-06-16T19:03:36.568Z,4.00
2018-06-16T19:06:05.501Z,3.83
2018-06-16T19:08:34.482Z,3.97
2018-06-16T19:11:03.645Z,4.10
2018-06-16T19:13:32.773Z,3.30
2018-06-16T19:16:01.922Z,3.73
2018-06-16T19:18:31.045Z,3.83
2018-06-16T19:21:00.198Z,3.90
2018-06-16T19:23:29.353Z,4.00
2018-06-16T19:25:58.513Z,3.90
2018-06-16T19:28:27.654Z,4.20
2018-06-16T19:30:56.773Z,3.43
2018-06-16T19:33:25.877Z,3.70
2018-06-16T19:35:55.043Z,3.50
2018-06-16T19:38:24.294Z,4.00
2018-06-16T19:40:53.464Z,4.03
2018-06-16T19:43:22.651Z,4.17
2018-06-16T19:45:51.850Z,5.00
2018-06-16T19:48:21.010Z,4.90
2018-06-16T19:50:50.145Z,4.00
2018-06-16T19:53:19.324Z,4.53
2018-06-16T19:55:48.845Z,4.30
2018-06-16T19:58:18.100Z,4.60
2018-06-16T20:00:47.273Z,4.50
2018-06-16T20:03:16.413Z,5.03
2018-06-16T20:05:45.587Z,5.27
2018-06-16T20:08:14.759Z,4.30
2018-06-16T20:10:43.905Z,5.23
2018-06-16T20:13:13.045Z,4.90
2018-06-16T20:15:42.274Z,3.73
2018-06-16T20:18:11.420Z,4.30
2018-06-16T20:20:40.729Z,5.60
2018-06-16T20:23:09.860Z,5.20
2018-06-16T20:25:39.046Z,9.13
2018-06-16T20:28:08.277Z,5.97
2018-06-16T20:30:37.564Z,5.87
2018-06-16T20:33:06.754Z,5.20
2018-06-16T20:35:35.961Z,5.70
2018-06-16T20:38:05.174Z,5.43
2018-06-16T20:40:34.301Z,5.37
2018-06-16T20:43:03.316Z,4.70
2018-06-16T20:45:32.484Z,5.13
2018-06-16T20:48:01.700Z,5.12
2018-06-16T20:50:30.870Z,4.50
2018-06-16T20:53:00.099Z,4.90
2018-06-16T20:55:29.318Z,4.83
2018-06-16T20:57:58.559Z,4.97
2018-06-16T21:00:27.702Z,4.53
2018-06-16T21:02:56.808Z,4.80
2018-06-16T21:05:26.174Z,4.73
2018-06-16T21:07:55.013Z,4.33
2018-06-16T21:10:24.053Z,4.93
2018-06-16T21:12:53.197Z,4.50
2018-06-16T21:15:22.369Z,4.37
2018-06-16T21:17:51.521Z,4.60
2018-06-16T21:20:20.662Z,4.83
2018-06-16T21:22:49.801Z,5.17
2018-06-16T21:25:18.961Z,4.80
2018-06-16T21:27:48.086Z,5.10
2018-06-16T21:30:17.182Z,6.30
2018-06-16T21:32:46.316Z,5.37
2018-06-16T21:35:15.454Z,4.67
2018-06-16T21:37:51.151Z,4.67
2018-06-16T21:40:20.398Z,4.37
2018-06-16T21:42:49.670Z,4.03
2018-06-16T21:45:20.032Z,4.77
2018-06-16T21:47:49.192Z,5.20
2018-06-16T21:50:18.327Z,4.93
2018-06-16T21:52:47.488Z,4.90
2018-06-16T21:55:16.657Z,4.40
2018-06-16T21:57:45.811Z,4.77
2018-06-16T22:00:14.929Z,4.87
2018-06-16T22:02:44.171Z,5.23
2018-06-16T22:05:13.361Z,4.63
2018-06-16T22:07:42.510Z,4.60
2018-06-16T22:10:11.711Z,4.83
2018-06-16T22:12:40.883Z,5.20
2018-06-16T22:15:10.021Z,5.00
2018-06-16T22:17:39.241Z,5.13
2018-06-16T22:20:08.428Z,5.63
2018-06-16T22:22:37.568Z,6.17
2018-06-16T22:25:06.737Z,5.50
2018-06-16T22:27:35.868Z,5.83
2018-06-16T22:30:05.065Z,6.30
2018-06-16T22:32:34.190Z,8.40
2018-06-16T22:35:03.313Z,8.77
2018-06-16T22:37:32.478Z,9.27
2018-06-16T22:40:01.606Z,13.83
2018-06-16T22:42:30.772Z,6.63
2018-06-16T22:44:59.894Z,6.20
2018-06-16T22:47:29.022Z,5.60
2018-06-16T22:49:58.171Z,7.40
2018-06-16T22:52:27.329Z,7.43
2018-06-16T22:54:56.580Z,5.57
2018-06-16T22:57:25.718Z,5.80
2018-06-16T22:59:54.797Z,5.77
2018-06-16T23:02:23.974Z,6.17
2018-06-16T23:04:53.131Z,5.63
2018-06-16T23:07:22.280Z,5.50
2018-06-16T23:09:51.426Z,5.57
2018-06-16T23:12:20.604Z,5.37
2018-06-16T23:14:49.759Z,5.07
2018-06-16T23:17:18.892Z,5.57
2018-06-16T23:19:48.058Z,6.07
2018-06-16T23:22:17.301Z,5.83
2018-06-16T23:24:46.602Z,5.93
2018-06-16T23:27:15.800Z,6.83
2018-06-16T23:29:44.920Z,7.00
2018-06-16T23:32:14.046Z,6.57
2018-06-16T23:34:43.181Z,6.47
2018-06-16T23:37:12.283Z,5.23
2018-06-16T23:39:41.501Z,5.37
2018-06-16T23:42:10.641Z,5.23
2018-06-16T23:44:39.760Z,4.70
2018-06-16T23:47:08.867Z,4.97
2018-06-16T23:49:38.002Z,5.33
2018-06-16T23:52:07.265Z,4.60
2018-06-16T23:54:36.407Z,4.57
2018-06-16T23:57:05.842Z,4.60
2018-06-16T23:59:34.990Z,4.37
